createdAt,value
2022-09-24T00:04:18.904Z,7.37
2022-09-24T00:09:23.812Z,6.97
2022-09-24T00:14:26.717Z,6.47
2022-09-24T00:19:30.245Z,6.50
2022-09-24T00:24:51.973Z,5.93
2022-09-24T00:29:54.919Z,5.50
2022-09-24T00:34:57.823Z,5.10
2022-09-24T00:40:02.464Z,5.57
2022-09-24T00:45:05.809Z,5.37
2022-09-24T00:50:18.033Z,5.87
2022-09-24T00:55:23.725Z,5.30
2022-09-24T01:00:27.799Z,5.60
2022-09-24T01:05:30.996Z,5.03
2022-09-24T01:10:49.092Z,4.83
2022-09-24T01:15:59.623Z,4.77
2022-09-24T01:21:22.801Z,4.93
2022-09-24T01:26:48.328Z,4.70
2022-09-24T01:32:02.563Z,4.47
2022-09-24T01:37:06.053Z,4.67
2022-09-24T01:42:11.198Z,4.47
2022-09-24T01:47:21.177Z,4.20
2022-09-24T01:52:28.775Z,4.47
2022-09-24T01:57:38.992Z,4.43
2022-09-24T02:02:48.234Z,5.10
2022-09-24T02:07:59.067Z,4.70
2022-09-24T02:13:06.829Z,4.80
2022-09-24T02:18:15.543Z,4.90
2022-09-24T02:23:20.259Z,4.90
2022-09-24T02:28:23.208Z,5.07
2022-09-24T02:33:47.924Z,4.47
2022-09-24T02:38:50.860Z,5.30
2022-09-24T02:43:54.095Z,4.90
2022-09-24T02:48:58.445Z,4.90
2022-09-24T02:54:01.851Z,5.83
2022-09-24T02:59:05.021Z,5.80
2022-09-24T03:04:09.473Z,5.00
2022-09-24T03:09:13.033Z,5.50
2022-09-24T03:14:16.021Z,5.13
2022-09-24T03:19:20.318Z,5.20
2022-09-24T03:24:23.453Z,4.87
2022-09-24T03:29:40.292Z,5.17
2022-09-24T03:34:44.552Z,4.90
2022-09-24T03:39:47.411Z,5.17
2022-09-24T03:44:50.567Z,4.90
2022-09-24T03:49:54.813Z,5.23
2022-09-24T03:54:57.737Z,6.47
2022-09-24T04:00:00.671Z,6.40
2022-09-24T04:05:05.380Z,6.30
2022-09-24T04:10:09.530Z,6.70
2022-09-24T04:15:12.952Z,7.43
2022-09-24T04:20:17.419Z,6.57
2022-09-24T04:25:21.328Z,6.57
2022-09-24T04:30:25.538Z,6.33
2022-09-24T04:35:32.162Z,6.90
2022-09-24T04:40:35.385Z,6.70
2022-09-24T04:45:38.465Z,6.40
2022-09-24T04:50:46.122Z,6.90
2022-09-24T04:55:49.469Z,6.63
2022-09-24T05:00:53.354Z,7.43
2022-09-24T05:05:57.737Z,6.67
2022-09-24T05:11:02.202Z,6.87
2022-09-24T05:16:05.231Z,6.77
2022-09-24T05:21:09.650Z,6.50
2022-09-24T05:26:30.222Z,6.90
2022-09-24T05:31:33.218Z,6.80
2022-09-24T05:36:37.568Z,7.03
2022-09-24T05:41:41.174Z,7.57
2022-09-24T05:46:44.165Z,8.80
2022-09-24T05:51:50.654Z,13.43
2022-09-24T05:56:53.612Z,13.90
2022-09-24T06:01:56.578Z,11.40
2022-09-24T06:07:00.889Z,10.27
2022-09-24T06:12:04.220Z,9.47
2022-09-24T06:17:07.129Z,10.30
2022-09-24T06:22:11.411Z,9.20
2022-09-24T06:27:14.320Z,8.70
2022-09-24T06:32:17.673Z,8.60
2022-09-24T06:37:22.495Z,9.10
2022-09-24T06:42:25.553Z,7.57
2022-09-24T06:47:30.150Z,8.57
2022-09-24T06:52:34.453Z,8.40
2022-09-24T06:57:37.402Z,8.70
2022-09-24T07:02:40.467Z,8.60
2022-09-24T07:07:44.857Z,9.90
2022-09-24T07:12:47.817Z,10.47
2022-09-24T07:17:55.617Z,9.27
2022-09-24T07:23:00.198Z,9.60
2022-09-24T07:28:04.919Z,9.20
2022-09-24T07:33:08.446Z,8.40
2022-09-24T07:38:13.350Z,8.80
2022-09-24T07:43:16.342Z,8.53
2022-09-24T07:48:19.328Z,8.50
2022-09-24T07:53:24.231Z,6.20
2022-09-24T07:58:27.186Z,5.97
2022-09-24T08:03:30.162Z,5.80
2022-09-24T08:08:34.584Z,6.40
2022-09-24T08:13:38.060Z,5.83
2022-09-24T08:18:41.388Z,6.50
2022-09-24T08:23:45.882Z,5.53
2022-09-24T08:28:51.886Z,5.53
2022-09-24T08:33:55.193Z,5.60
2022-09-24T08:38:59.469Z,5.73
2022-09-24T08:44:05.569Z,6.40
2022-09-24T08:49:12.914Z,5.63
2022-09-24T08:54:17.282Z,4.63
2022-09-24T08:59:28.502Z,5.80
2022-09-24T09:04:41.539Z,5.90
2022-09-24T09:09:51.146Z,5.53
2022-09-24T09:15:00.632Z,4.80
2022-09-24T09:20:08.568Z,5.37
2022-09-24T09:25:25.881Z,5.00
2022-09-24T09:30:43.503Z,5.37
2022-09-24T09:35:56.338Z,5.90
2022-09-24T09:41:07.807Z,5.53
2022-09-24T09:46:17.086Z,5.80
2022-09-24T09:51:23.025Z,5.70
2022-09-24T09:56:30.408Z,7.83
2022-09-24T10:01:36.191Z,5.70
2022-09-24T10:06:39.143Z,5.87
2022-09-24T10:11:43.756Z,5.83
2022-09-24T10:16:51.957Z,6.23
2022-09-24T10:21:59.120Z,5.80
2022-09-24T10:27:12.933Z,5.00
2022-09-24T10:32:21.431Z,4.70
2022-09-24T10:37:24.523Z,4.90
2022-09-24T10:42:31.138Z,5.00
2022-09-24T10:47:43.674Z,5.30
2022-09-24T10:52:52.393Z,5.03
2022-09-24T10:58:04.489Z,4.97
2022-09-24T11:03:38.778Z,5.60
2022-09-24T11:08:59.625Z,4.60
2022-09-24T11:14:19.244Z,5.97
2022-09-24T11:19:40.373Z,5.43
2022-09-24T11:25:00.802Z,4.93
2022-09-24T11:30:13.276Z,4.70
2022-09-24T11:35:40.215Z,4.90
2022-09-24T11:40:59.559Z,4.33
2022-09-24T11:46:15.678Z,4.30
2022-09-24T11:51:29.389Z,4.93
2022-09-24T11:56:36.458Z,4.20
2022-09-24T12:01:47.979Z,3.93
2022-09-24T12:06:56.047Z,4.50
2022-09-24T12:12:05.989Z,4.53
2022-09-24T12:17:17.883Z,4.30
2022-09-24T12:22:22.954Z,4.50
2022-09-24T12:27:34.549Z,3.77
2022-09-24T12:32:57.185Z,4.00
2022-09-24T12:38:04.940Z,3.80
2022-09-24T12:43:19.446Z,3.30
2022-09-24T12:48:26.615Z,4.67
2022-09-24T12:53:35.666Z,4.27
2022-09-24T12:58:41.549Z,3.90
2022-09-24T13:03:47.678Z,4.00
2022-09-24T13:08:51.566Z,4.13
2022-09-24T13:14:02.566Z,4.10
2022-09-24T13:19:24.870Z,4.13
2022-09-24T13:24:30.320Z,4.17
2022-09-24T13:29:39.541Z,4.13
2022-09-24T13:34:47.245Z,3.83
2022-09-24T13:39:57.312Z,4.07
2022-09-24T13:45:07.437Z,4.13
2022-09-24T13:50:19.101Z,4.27
2022-09-24T13:55:26.192Z,4.20
2022-09-24T14:00:31.417Z,4.30
2022-09-24T14:05:37.789Z,4.20
2022-09-24T14:10:41.261Z,4.53
2022-09-24T14:15:55.165Z,4.13
2022-09-24T14:21:06.261Z,4.43
2022-09-24T14:26:13.762Z,3.57
2022-09-24T14:31:17.020Z,3.70
2022-09-24T14:36:27.875Z,4.10
2022-09-24T14:41:33.315Z,4.10
2022-09-24T14:46:41.047Z,4.57
2022-09-24T14:51:52.932Z,3.70
2022-09-24T14:56:56.469Z,5.70
2022-09-24T15:02:17.400Z,6.73
2022-09-24T15:07:25.051Z,12.50
2022-09-24T15:12:31.811Z,13.10
2022-09-24T15:17:36.242Z,10.93
2022-09-24T15:22:40.597Z,6.10
2022-09-24T15:27:43.912Z,8.30
2022-09-24T15:32:47.424Z,6.60
2022-09-24T15:37:52.518Z,4.70
2022-09-24T15:42:55.438Z,4.00
2022-09-24T15:47:58.787Z,4.50
2022-09-24T15:53:03.764Z,8.13
2022-09-24T15:58:19.090Z,8.73
2022-09-24T16:03:26.009Z,5.93
2022-09-24T16:08:30.330Z,6.40
2022-09-24T16:13:35.188Z,14.30
2022-09-24T16:18:39.801Z,55.93
2022-09-24T16:23:44.284Z,86.77
2022-09-24T16:28:47.477Z,21.10
2022-09-24T16:33:50.437Z,19.50
2022-09-24T16:38:54.757Z,39.77
2022-09-24T16:43:58.711Z,22.83
2022-09-24T16:49:01.634Z,14.20
2022-09-24T16:54:06.686Z,9.37
2022-09-24T16:59:11.354Z,14.37
2022-09-24T17:04:14.305Z,31.50
2022-09-24T17:09:35.817Z,21.67
2022-09-24T17:14:39.316Z,57.83
2022-09-24T17:19:42.268Z,27.63
2022-09-24T17:24:46.538Z,21.40
2022-09-24T17:29:49.452Z,15.50
2022-09-24T17:34:52.388Z,11.80
2022-09-24T17:39:57.499Z,12.70
2022-09-24T17:45:00.559Z,17.73
2022-09-24T17:50:03.464Z,16.73
2022-09-24T17:55:08.823Z,33.70
2022-09-24T18:00:12.722Z,30.27
2022-09-24T18:05:15.720Z,16.80
2022-09-24T18:10:20.049Z,21.47
2022-09-24T18:15:23.027Z,24.53
2022-09-24T18:20:27.106Z,14.73
2022-09-24T18:25:31.580Z,12.40
2022-09-24T18:30:34.577Z,11.00
2022-09-24T18:35:37.561Z,11.00
2022-09-24T18:40:42.003Z,12.50
2022-09-24T18:45:45.161Z,14.77
2022-09-24T18:50:48.140Z,16.37
2022-09-24T18:55:52.665Z,17.67
2022-09-24T19:00:59.380Z,18.77
2022-09-24T19:06:04.641Z,19.60
2022-09-24T19:11:14.066Z,27.33
2022-09-24T19:16:18.334Z,27.83
2022-09-24T19:21:23.130Z,35.20
2022-09-24T19:26:30.101Z,25.67
2022-09-24T19:31:35.926Z,16.20
2022-09-24T19:36:43.854Z,20.30
2022-09-24T19:41:52.839Z,16.43
2022-09-24T19:46:55.885Z,17.00
2022-09-24T19:51:58.829Z,22.07
2022-09-24T19:57:03.138Z,17.67
2022-09-24T20:02:06.111Z,14.70
2022-09-24T20:07:09.188Z,13.87
2022-09-24T20:12:16.997Z,13.20
2022-09-24T20:17:19.931Z,13.90
2022-09-24T20:22:22.840Z,21.23
2022-09-24T20:27:44.826Z,17.20
2022-09-24T20:32:47.952Z,14.97
2022-09-24T20:37:50.916Z,13.10
2022-09-24T20:42:55.284Z,14.43
2022-09-24T20:47:58.266Z,13.73
2022-09-24T20:53:01.446Z,12.27
2022-09-24T20:58:05.833Z,11.60
2022-09-24T21:03:25.863Z,11.70
2022-09-24T21:08:32.792Z,12.43
2022-09-24T21:13:41.177Z,12.27
2022-09-24T21:18:45.082Z,11.33
2022-09-24T21:23:49.745Z,12.77
2022-09-24T21:28:55.652Z,11.50
2022-09-24T21:33:59.113Z,14.53
2022-09-24T21:39:03.817Z,16.00
2022-09-24T21:44:10.227Z,15.20
2022-09-24T21:49:13.807Z,15.60
2022-09-24T21:54:18.886Z,18.10
2022-09-24T21:59:40.931Z,19.20
2022-09-24T22:04:44.411Z,20.17
2022-09-24T22:09:47.566Z,20.10
2022-09-24T22:14:52.376Z,20.27
2022-09-24T22:19:55.399Z,19.90
2022-09-24T22:24:58.343Z,19.83
2022-09-24T22:30:02.637Z,18.93
2022-09-24T22:35:23.849Z,19.70
2022-09-24T22:40:26.850Z,20.03
2022-09-24T22:45:31.212Z,18.80
2022-09-24T22:50:34.184Z,19.03
2022-09-24T22:55:37.097Z,17.00
2022-09-24T23:00:41.508Z,17.40
2022-09-24T23:05:45.275Z,17.40
2022-09-24T23:10:48.186Z,17.60
2022-09-24T23:15:52.516Z,20.30
2022-09-24T23:20:55.425Z,18.80
2022-09-24T23:26:05.020Z,19.67
2022-09-24T23:31:11.994Z,20.37
2022-09-24T23:36:16.373Z,18.90
2022-09-24T23:41:19.433Z,17.80
2022-09-24T23:46:23.881Z,17.47
2022-09-24T23:51:27.046Z,16.00
2022-09-24T23:56:30.026Z,15.90
